Řízení letového provozu České republiky
Letiste: LKLN Aktualizace: 13.11.2019 20:35:26  UTC
 SPECI LKLN 13.11. 20:34 ...
SPECI LKLN 132034Z AUTO 00000KT 2900 BR ///////// 01/01 Q1006=